sensor_id;sensor_type;location;lat;lon;timestamp;P1;durP1;ratioP1;P2;durP2;ratioP2
5052;SDS011;2545;50.892;5.740;2022-11-20T00:01:09;25.47;;;13.63;;
5052;SDS011;2545;50.892;5.740;2022-11-20T00:03:37;34.10;;;16.70;;
5052;SDS011;2545;50.892;5.740;2022-11-20T00:06:03;26.60;;;15.50;;
5052;SDS011;2545;50.892;5.740;2022-11-20T00:08:30;31.83;;;16.43;;
5052;SDS011;2545;50.892;5.740;2022-11-20T00:10:55;31.43;;;15.57;;
5052;SDS011;2545;50.892;5.740;2022-11-20T00:13:21;30.07;;;16.07;;
5052;SDS011;2545;50.892;5.740;2022-11-20T00:15:46;29.43;;;14.67;;
5052;SDS011;2545;50.892;5.740;2022-11-20T00:18:11;23.27;;;14.37;;
5052;SDS011;2545;50.892;5.740;2022-11-20T00:20:37;26.67;;;15.13;;
5052;SDS011;2545;50.892;5.740;2022-11-20T00:23:02;32.93;;;15.50;;
5052;SDS011;2545;50.892;5.740;2022-11-20T00:25:27;25.53;;;16.23;;
5052;SDS011;2545;50.892;5.740;2022-11-20T00:27:53;36.50;;;18.00;;
5052;SDS011;2545;50.892;5.740;2022-11-20T00:30:18;25.47;;;14.63;;
5052;SDS011;2545;50.892;5.740;2022-11-20T00:32:43;27.20;;;14.83;;
5052;SDS011;2545;50.892;5.740;2022-11-20T00:35:09;27.77;;;15.00;;
5052;SDS011;2545;50.892;5.740;2022-11-20T00:37:34;29.10;;;16.83;;
5052;SDS011;2545;50.892;5.740;2022-11-20T00:39:59;25.70;;;15.83;;
5052;SDS011;2545;50.892;5.740;2022-11-20T00:42:24;37.70;;;17.10;;
5052;SDS011;2545;50.892;5.740;2022-11-20T00:44:50;23.40;;;14.67;;
5052;SDS011;2545;50.892;5.740;2022-11-20T00:47:15;27.60;;;15.40;;
5052;SDS011;2545;50.892;5.740;2022-11-20T00:49:40;25.50;;;14.97;;
5052;SDS011;2545;50.892;5.740;2022-11-20T00:52:05;27.47;;;14.60;;
5052;SDS011;2545;50.892;5.740;2022-11-20T00:54:31;25.60;;;14.50;;
5052;SDS011;2545;50.892;5.740;2022-11-20T00:56:56;27.03;;;15.70;;
5052;SDS011;2545;50.892;5.740;2022-11-20T00:59:21;23.80;;;14.70;;
5052;SDS011;2545;50.892;5.740;2022-11-20T01:01:47;36.47;;;15.63;;
5052;SDS011;2545;50.892;5.740;2022-11-20T01:04:12;25.37;;;14.73;;
5052;SDS011;2545;50.892;5.740;2022-11-20T01:06:38;39.67;;;16.30;;
5052;SDS011;2545;50.892;5.740;2022-11-20T01:09:05;25.87;;;15.30;;
5052;SDS011;2545;50.892;5.740;2022-11-20T01:11:35;26.30;;;15.37;;
5052;SDS011;2545;50.892;5.740;2022-11-20T01:14:04;26.43;;;14.50;;
5052;SDS011;2545;50.892;5.740;2022-11-20T01:16:31;24.90;;;15.03;;
5052;SDS011;2545;50.892;5.740;2022-11-20T01:19:01;23.87;;;15.20;;
5052;SDS011;2545;50.892;5.740;2022-11-20T01:21:29;28.00;;;15.43;;
5052;SDS011;2545;50.892;5.740;2022-11-20T01:23:57;27.17;;;15.70;;
5052;SDS011;2545;50.892;5.740;2022-11-20T01:26:24;25.03;;;13.77;;
5052;SDS011;2545;50.892;5.740;2022-11-20T01:28:51;25.70;;;14.70;;
5052;SDS011;2545;50.892;5.740;2022-11-20T01:31:18;24.87;;;15.57;;
5052;SDS011;2545;50.892;5.740;2022-11-20T01:33:48;26.07;;;15.20;;
5052;SDS011;2545;50.892;5.740;2022-11-20T01:36:16;35.00;;;16.17;;
5052;SDS011;2545;50.892;5.740;2022-11-20T01:38:44;27.67;;;16.10;;
5052;SDS011;2545;50.892;5.740;2022-11-20T01:41:10;28.50;;;15.30;;
5052;SDS011;2545;50.892;5.740;2022-11-20T01:43:57;30.03;;;14.17;;
5052;SDS011;2545;50.892;5.740;2022-11-20T01:46:23;25.50;;;14.97;;
5052;SDS011;2545;50.892;5.740;2022-11-20T01:48:50;27.23;;;15.10;;
5052;SDS011;2545;50.892;5.740;2022-11-20T01:54:22;25.97;;;15.40;;
5052;SDS011;2545;50.892;5.740;2022-11-20T01:56:54;26.97;;;15.60;;
5052;SDS011;2545;50.892;5.740;2022-11-20T01:59:24;27.70;;;15.63;;
5052;SDS011;2545;50.892;5.740;2022-11-20T02:01:52;30.37;;;17.17;;
5052;SDS011;2545;50.892;5.740;2022-11-20T02:04:17;34.37;;;18.30;;
5052;SDS011;2545;50.892;5.740;2022-11-20T02:06:51;35.40;;;17.00;;
5052;SDS011;2545;50.892;5.740;2022-11-20T02:09:24;29.77;;;16.30;;
5052;SDS011;2545;50.892;5.740;2022-11-20T02:11:49;28.47;;;15.63;;
5052;SDS011;2545;50.892;5.740;2022-11-20T02:14:14;30.23;;;15.90;;
5052;SDS011;2545;50.892;5.740;2022-11-20T02:16:41;26.43;;;16.17;;
5052;SDS011;2545;50.892;5.740;2022-11-20T02:19:15;35.63;;;16.57;;
5052;SDS011;2545;50.892;5.740;2022-11-20T02:21:56;28.93;;;17.10;;
5052;SDS011;2545;50.892;5.740;2022-11-20T02:24:29;25.53;;;15.10;;
5052;SDS011;2545;50.892;5.740;2022-11-20T02:29:35;30.30;;;16.00;;
5052;SDS011;2545;50.892;5.740;2022-11-20T02:32:04;31.60;;;16.80;;
5052;SDS011;2545;50.892;5.740;2022-11-20T02:34:30;25.47;;;15.03;;
5052;SDS011;2545;50.892;5.740;2022-11-20T02:36:56;27.27;;;15.33;;
5052;SDS011;2545;50.892;5.740;2022-11-20T02:39:22;29.07;;;15.30;;
5052;SDS011;2545;50.892;5.740;2022-11-20T02:41:50;31.70;;;16.37;;
5052;SDS011;2545;50.892;5.740;2022-11-20T02:44:18;29.83;;;17.43;;
5052;SDS011;2545;50.892;5.740;2022-11-20T02:46:43;30.87;;;15.57;;
5052;SDS011;2545;50.892;5.740;2022-11-20T02:49:09;28.43;;;16.43;;
5052;SDS011;2545;50.892;5.740;2022-11-20T02:51:34;27.10;;;15.20;;
5052;SDS011;2545;50.892;5.740;2022-11-20T02:53:59;26.80;;;15.53;;
5052;SDS011;2545;50.892;5.740;2022-11-20T02:56:25;29.60;;;16.10;;
5052;SDS011;2545;50.892;5.740;2022-11-20T02:58:50;31.27;;;16.90;;
5052;SDS011;2545;50.892;5.740;2022-11-20T03:01:16;26.63;;;15.77;;
5052;SDS011;2545;50.892;5.740;2022-11-20T03:03:41;30.10;;;16.97;;
5052;SDS011;2545;50.892;5.740;2022-11-20T03:06:06;29.70;;;16.23;;
5052;SDS011;2545;50.892;5.740;2022-11-20T03:08:32;32.40;;;16.30;;
5052;SDS011;2545;50.892;5.740;2022-11-20T03:11:01;30.57;;;16.50;;
5052;SDS011;2545;50.892;5.740;2022-11-20T03:13:28;29.97;;;15.80;;
5052;SDS011;2545;50.892;5.740;2022-11-20T03:15:53;31.07;;;16.10;;
5052;SDS011;2545;50.892;5.740;2022-11-20T03:18:18;25.53;;;16.10;;
5052;SDS011;2545;50.892;5.740;2022-11-20T03:20:44;26.13;;;15.30;;
5052;SDS011;2545;50.892;5.740;2022-11-20T03:23:09;28.83;;;16.97;;
5052;SDS011;2545;50.892;5.740;2022-11-20T03:25:34;30.63;;;16.33;;
5052;SDS011;2545;50.892;5.740;2022-11-20T03:28:00;22.37;;;14.93;;
5052;SDS011;2545;50.892;5.740;2022-11-20T03:30:25;27.67;;;16.33;;
5052;SDS011;2545;50.892;5.740;2022-11-20T03:32:52;30.57;;;15.80;;
5052;SDS011;2545;50.892;5.740;2022-11-20T03:35:18;31.37;;;15.87;;
5052;SDS011;2545;50.892;5.740;2022-11-20T03:37:44;28.07;;;16.40;;
5052;SDS011;2545;50.892;5.740;2022-11-20T03:40:10;29.67;;;17.27;;
5052;SDS011;2545;50.892;5.740;2022-11-20T03:42:36;31.00;;;18.10;;
5052;SDS011;2545;50.892;5.740;2022-11-20T03:45:10;26.53;;;15.97;;
5052;SDS011;2545;50.892;5.740;2022-11-20T03:47:35;28.80;;;15.13;;
5052;SDS011;2545;50.892;5.740;2022-11-20T03:50:01;28.77;;;15.63;;
5052;SDS011;2545;50.892;5.740;2022-11-20T03:52:26;27.63;;;16.03;;
5052;SDS011;2545;50.892;5.740;2022-11-20T03:54:52;27.67;;;17.00;;
5052;SDS011;2545;50.892;5.740;2022-11-20T03:57:17;39.07;;;17.30;;
5052;SDS011;2545;50.892;5.740;2022-11-20T03:59:42;26.70;;;15.50;;
5052;SDS011;2545;50.892;5.740;2022-11-20T04:02:07;31.23;;;16.73;;
5052;SDS011;2545;50.892;5.740;2022-11-20T04:04:33;30.30;;;16.03;;
5052;SDS011;2545;50.892;5.740;2022-11-20T04:06:58;30.20;;;16.07;;
5052;SDS011;2545;50.892;5.740;2022-11-20T04:09:23;26.13;;;15.70;;
5052;SDS011;2545;50.892;5.740;2022-11-20T04:11:49;26.10;;;16.10;;
5052;SDS011;2545;50.892;5.740;2022-11-20T04:14:15;32.53;;;15.60;;
5052;SDS011;2545;50.892;5.740;2022-11-20T04:16:41;28.03;;;17.53;;
5052;SDS011;2545;50.892;5.740;2022-11-20T04:19:09;24.30;;;16.47;;
5052;SDS011;2545;50.892;5.740;2022-11-20T04:21:37;24.23;;;15.23;;
5052;SDS011;2545;50.892;5.740;2022-11-20T04:24:03;31.47;;;15.30;;
5052;SDS011;2545;50.892;5.740;2022-11-20T04:26:29;26.80;;;15.20;;
5052;SDS011;2545;50.892;5.740;2022-11-20T04:28:55;30.90;;;15.80;;
5052;SDS011;2545;50.892;5.740;2022-11-20T04:31:22;28.37;;;15.53;;
5052;SDS011;2545;50.892;5.740;2022-11-20T04:33:48;25.73;;;14.90;;
5052;SDS011;2545;50.892;5.740;2022-11-20T04:36:15;31.37;;;16.30;;
5052;SDS011;2545;50.892;5.740;2022-11-20T04:38:42;30.60;;;16.10;;
5052;SDS011;2545;50.892;5.740;2022-11-20T04:41:09;32.13;;;15.60;;
5052;SDS011;2545;50.892;5.740;2022-11-20T04:43:39;26.37;;;15.63;;
5052;SDS011;2545;50.892;5.740;2022-11-20T04:46:05;36.90;;;17.17;;
5052;SDS011;2545;50.892;5.740;2022-11-20T04:48:30;35.60;;;18.17;;
5052;SDS011;2545;50.892;5.740;2022-11-20T04:50:55;30.43;;;16.90;;
5052;SDS011;2545;50.892;5.740;2022-11-20T04:53:21;30.53;;;16.13;;
5052;SDS011;2545;50.892;5.740;2022-11-20T04:55:47;35.30;;;16.67;;
5052;SDS011;2545;50.892;5.740;2022-11-20T04:58:12;27.77;;;16.33;;
5052;SDS011;2545;50.892;5.740;2022-11-20T05:00:38;30.20;;;16.00;;
5052;SDS011;2545;50.892;5.740;2022-11-20T05:03:04;32.27;;;17.73;;
5052;SDS011;2545;50.892;5.740;2022-11-20T05:05:29;35.57;;;17.00;;
5052;SDS011;2545;50.892;5.740;2022-11-20T05:07:57;42.30;;;19.40;;
5052;SDS011;2545;50.892;5.740;2022-11-20T05:10:24;46.30;;;19.13;;
5052;SDS011;2545;50.892;5.740;2022-11-20T05:12:51;41.27;;;19.70;;
5052;SDS011;2545;50.892;5.740;2022-11-20T05:15:16;40.70;;;20.00;;
5052;SDS011;2545;50.892;5.740;2022-11-20T05:17:46;38.67;;;20.17;;
5052;SDS011;2545;50.892;5.740;2022-11-20T05:20:13;38.63;;;18.20;;
5052;SDS011;2545;50.892;5.740;2022-11-20T05:22:38;39.57;;;18.97;;
5052;SDS011;2545;50.892;5.740;2022-11-20T05:25:03;41.27;;;20.87;;
5052;SDS011;2545;50.892;5.740;2022-11-20T05:27:29;38.77;;;20.20;;
5052;SDS011;2545;50.892;5.740;2022-11-20T05:29:54;51.77;;;20.37;;
5052;SDS011;2545;50.892;5.740;2022-11-20T05:32:19;37.77;;;19.10;;
5052;SDS011;2545;50.892;5.740;2022-11-20T05:34:45;43.87;;;20.50;;
5052;SDS011;2545;50.892;5.740;2022-11-20T05:37:10;46.60;;;21.00;;
5052;SDS011;2545;50.892;5.740;2022-11-20T05:39:35;44.27;;;20.90;;
5052;SDS011;2545;50.892;5.740;2022-11-20T05:42:00;37.03;;;19.60;;
5052;SDS011;2545;50.892;5.740;2022-11-20T05:44:44;44.80;;;21.77;;
5052;SDS011;2545;50.892;5.740;2022-11-20T05:47:09;52.40;;;22.37;;
5052;SDS011;2545;50.892;5.740;2022-11-20T05:49:35;49.90;;;21.20;;
5052;SDS011;2545;50.892;5.740;2022-11-20T05:52:00;46.50;;;21.07;;
5052;SDS011;2545;50.892;5.740;2022-11-20T05:54:25;42.30;;;21.13;;
5052;SDS011;2545;50.892;5.740;2022-11-20T05:56:51;51.77;;;22.07;;
5052;SDS011;2545;50.892;5.740;2022-11-20T05:59:16;53.53;;;23.50;;
5052;SDS011;2545;50.892;5.740;2022-11-20T06:01:41;43.47;;;21.87;;
5052;SDS011;2545;50.892;5.740;2022-11-20T06:04:07;42.00;;;21.10;;
5052;SDS011;2545;50.892;5.740;2022-11-20T06:06:32;40.27;;;21.87;;
5052;SDS011;2545;50.892;5.740;2022-11-20T06:08:58;48.67;;;22.37;;
5052;SDS011;2545;50.892;5.740;2022-11-20T06:11:24;45.33;;;19.80;;
5052;SDS011;2545;50.892;5.740;2022-11-20T06:13:50;46.23;;;20.00;;
5052;SDS011;2545;50.892;5.740;2022-11-20T06:16:17;52.07;;;21.77;;
5052;SDS011;2545;50.892;5.740;2022-11-20T06:18:44;45.73;;;23.77;;
5052;SDS011;2545;50.892;5.740;2022-11-20T06:21:27;52.03;;;21.77;;
5052;SDS011;2545;50.892;5.740;2022-11-20T06:23:53;56.90;;;20.50;;
5052;SDS011;2545;50.892;5.740;2022-11-20T06:26:23;50.67;;;23.10;;
5052;SDS011;2545;50.892;5.740;2022-11-20T06:28:50;40.10;;;19.73;;
5052;SDS011;2545;50.892;5.740;2022-11-20T06:31:18;48.00;;;20.67;;
5052;SDS011;2545;50.892;5.740;2022-11-20T06:33:44;43.90;;;20.40;;
5052;SDS011;2545;50.892;5.740;2022-11-20T06:36:11;44.67;;;20.73;;
5052;SDS011;2545;50.892;5.740;2022-11-20T06:38:38;45.67;;;21.77;;
5052;SDS011;2545;50.892;5.740;2022-11-20T06:41:08;41.10;;;22.00;;
5052;SDS011;2545;50.892;5.740;2022-11-20T06:43:36;45.67;;;21.40;;
5052;SDS011;2545;50.892;5.740;2022-11-20T06:46:02;45.20;;;21.57;;
5052;SDS011;2545;50.892;5.740;2022-11-20T06:48:27;43.83;;;22.20;;
5052;SDS011;2545;50.892;5.740;2022-11-20T06:50:53;42.23;;;21.27;;
5052;SDS011;2545;50.892;5.740;2022-11-20T06:53:19;49.33;;;20.50;;
5052;SDS011;2545;50.892;5.740;2022-11-20T06:55:45;51.67;;;21.13;;
5052;SDS011;2545;50.892;5.740;2022-11-20T06:58:11;54.00;;;21.70;;
5052;SDS011;2545;50.892;5.740;2022-11-20T07:00:37;44.60;;;20.83;;
5052;SDS011;2545;50.892;5.740;2022-11-20T07:03:06;43.13;;;19.97;;
5052;SDS011;2545;50.892;5.740;2022-11-20T07:05:32;47.70;;;19.10;;
5052;SDS011;2545;50.892;5.740;2022-11-20T07:07:58;60.13;;;21.10;;
5052;SDS011;2545;50.892;5.740;2022-11-20T07:10:24;47.53;;;19.40;;
5052;SDS011;2545;50.892;5.740;2022-11-20T07:12:50;46.00;;;20.73;;
5052;SDS011;2545;50.892;5.740;2022-11-20T07:15:16;39.50;;;19.30;;
5052;SDS011;2545;50.892;5.740;2022-11-20T07:17:42;39.27;;;19.63;;
5052;SDS011;2545;50.892;5.740;2022-11-20T07:20:08;40.40;;;18.23;;
5052;SDS011;2545;50.892;5.740;2022-11-20T07:24:01;41.57;;;20.17;;
5052;SDS011;2545;50.892;5.740;2022-11-20T07:26:26;51.50;;;19.90;;
5052;SDS011;2545;50.892;5.740;2022-11-20T07:28:51;43.67;;;20.67;;
5052;SDS011;2545;50.892;5.740;2022-11-20T07:31:16;43.53;;;20.77;;
5052;SDS011;2545;50.892;5.740;2022-11-20T07:33:42;41.40;;;19.70;;
5052;SDS011;2545;50.892;5.740;2022-11-20T07:36:07;38.23;;;18.97;;
5052;SDS011;2545;50.892;5.740;2022-11-20T07:38:32;42.80;;;20.40;;
5052;SDS011;2545;50.892;5.740;2022-11-20T07:40:58;43.30;;;19.67;;
5052;SDS011;2545;50.892;5.740;2022-11-20T07:43:26;35.37;;;17.50;;
5052;SDS011;2545;50.892;5.740;2022-11-20T07:45:52;42.90;;;20.03;;
5052;SDS011;2545;50.892;5.740;2022-11-20T07:48:20;40.37;;;19.60;;
5052;SDS011;2545;50.892;5.740;2022-11-20T07:50:45;37.93;;;19.10;;
5052;SDS011;2545;50.892;5.740;2022-11-20T07:53:11;41.30;;;19.77;;
5052;SDS011;2545;50.892;5.740;2022-11-20T07:55:37;42.33;;;19.63;;
5052;SDS011;2545;50.892;5.740;2022-11-20T07:58:02;44.70;;;20.13;;
5052;SDS011;2545;50.892;5.740;2022-11-20T08:00:28;42.27;;;20.53;;
5052;SDS011;2545;50.892;5.740;2022-11-20T08:02:53;50.53;;;20.67;;
5052;SDS011;2545;50.892;5.740;2022-11-20T08:05:18;43.93;;;18.60;;
5052;SDS011;2545;50.892;5.740;2022-11-20T08:07:44;40.33;;;20.50;;
5052;SDS011;2545;50.892;5.740;2022-11-20T08:10:11;37.33;;;18.57;;
5052;SDS011;2545;50.892;5.740;2022-11-20T08:12:51;34.57;;;18.00;;
5052;SDS011;2545;50.892;5.740;2022-11-20T08:15:36;40.13;;;18.27;;
5052;SDS011;2545;50.892;5.740;2022-11-20T08:18:03;55.43;;;20.83;;
5052;SDS011;2545;50.892;5.740;2022-11-20T08:20:30;40.53;;;20.10;;
5052;SDS011;2545;50.892;5.740;2022-11-20T08:23:00;40.47;;;19.37;;
5052;SDS011;2545;50.892;5.740;2022-11-20T08:25:26;40.60;;;18.80;;
5052;SDS011;2545;50.892;5.740;2022-11-20T08:27:52;37.80;;;19.27;;
5052;SDS011;2545;50.892;5.740;2022-11-20T08:30:17;44.20;;;19.03;;
5052;SDS011;2545;50.892;5.740;2022-11-20T08:32:43;42.60;;;19.20;;
5052;SDS011;2545;50.892;5.740;2022-11-20T08:35:08;37.83;;;19.77;;
5052;SDS011;2545;50.892;5.740;2022-11-20T08:37:33;45.47;;;20.53;;
5052;SDS011;2545;50.892;5.740;2022-11-20T08:39:59;43.00;;;20.20;;
5052;SDS011;2545;50.892;5.740;2022-11-20T08:42:24;44.10;;;20.13;;
5052;SDS011;2545;50.892;5.740;2022-11-20T08:44:49;35.03;;;19.20;;
5052;SDS011;2545;50.892;5.740;2022-11-20T08:47:15;42.03;;;17.80;;
5052;SDS011;2545;50.892;5.740;2022-11-20T08:49:40;36.13;;;18.47;;
5052;SDS011;2545;50.892;5.740;2022-11-20T08:52:05;40.67;;;19.93;;
5052;SDS011;2545;50.892;5.740;2022-11-20T08:54:30;39.57;;;19.73;;
5052;SDS011;2545;50.892;5.740;2022-11-20T08:56:56;38.60;;;18.13;;
5052;SDS011;2545;50.892;5.740;2022-11-20T08:59:21;35.87;;;18.77;;
5052;SDS011;2545;50.892;5.740;2022-11-20T09:01:46;40.27;;;19.07;;
5052;SDS011;2545;50.892;5.740;2022-11-20T09:04:12;37.77;;;18.40;;
5052;SDS011;2545;50.892;5.740;2022-11-20T09:06:39;36.80;;;19.33;;
5052;SDS011;2545;50.892;5.740;2022-11-20T09:09:04;44.20;;;17.30;;
5052;SDS011;2545;50.892;5.740;2022-11-20T09:11:30;38.90;;;17.80;;
5052;SDS011;2545;50.892;5.740;2022-11-20T09:13:56;42.80;;;19.27;;
5052;SDS011;2545;50.892;5.740;2022-11-20T09:16:21;46.57;;;17.23;;
5052;SDS011;2545;50.892;5.740;2022-11-20T09:18:49;40.70;;;19.63;;
5052;SDS011;2545;50.892;5.740;2022-11-20T09:21:15;39.80;;;19.13;;
5052;SDS011;2545;50.892;5.740;2022-11-20T09:23:41;48.67;;;18.93;;
5052;SDS011;2545;50.892;5.740;2022-11-20T09:26:08;39.73;;;17.80;;
5052;SDS011;2545;50.892;5.740;2022-11-20T09:28:35;36.17;;;17.93;;
5052;SDS011;2545;50.892;5.740;2022-11-20T09:31:00;36.77;;;17.50;;
5052;SDS011;2545;50.892;5.740;2022-11-20T09:33:30;41.97;;;19.33;;
5052;SDS011;2545;50.892;5.740;2022-11-20T09:35:55;42.03;;;19.10;;
5052;SDS011;2545;50.892;5.740;2022-11-20T09:38:20;40.70;;;18.03;;
5052;SDS011;2545;50.892;5.740;2022-11-20T09:40:51;40.57;;;18.90;;
5052;SDS011;2545;50.892;5.740;2022-11-20T09:43:37;37.33;;;18.30;;
5052;SDS011;2545;50.892;5.740;2022-11-20T09:54:57;40.20;;;18.93;;
5052;SDS011;2545;50.892;5.740;2022-11-20T09:57:29;39.30;;;17.93;;
5052;SDS011;2545;50.892;5.740;2022-11-20T10:00:00;38.70;;;17.87;;
5052;SDS011;2545;50.892;5.740;2022-11-20T10:02:28;37.47;;;17.37;;
5052;SDS011;2545;50.892;5.740;2022-11-20T10:05:22;44.00;;;19.07;;
5052;SDS011;2545;50.892;5.740;2022-11-20T10:07:52;42.47;;;20.37;;
5052;SDS011;2545;50.892;5.740;2022-11-20T10:15:53;48.33;;;21.10;;
5052;SDS011;2545;50.892;5.740;2022-11-20T10:29:44;46.43;;;18.90;;
5052;SDS011;2545;50.892;5.740;2022-11-20T10:32:16;51.67;;;18.87;;
5052;SDS011;2545;50.892;5.740;2022-11-20T10:35:01;48.50;;;21.47;;
5052;SDS011;2545;50.892;5.740;2022-11-20T10:37:40;53.00;;;21.97;;
5052;SDS011;2545;50.892;5.740;2022-11-20T10:43:02;51.40;;;21.17;;
5052;SDS011;2545;50.892;5.740;2022-11-20T10:48:14;50.43;;;21.13;;
5052;SDS011;2545;50.892;5.740;2022-11-20T10:56:13;50.27;;;21.10;;
5052;SDS011;2545;50.892;5.740;2022-11-20T11:01:28;46.40;;;21.00;;
5052;SDS011;2545;50.892;5.740;2022-11-20T11:03:54;43.07;;;19.90;;
5052;SDS011;2545;50.892;5.740;2022-11-20T11:08:48;54.63;;;21.60;;
5052;SDS011;2545;50.892;5.740;2022-11-20T11:11:20;48.80;;;19.60;;
5052;SDS011;2545;50.892;5.740;2022-11-20T11:13:48;41.33;;;18.77;;
5052;SDS011;2545;50.892;5.740;2022-11-20T11:16:24;45.83;;;20.50;;
5052;SDS011;2545;50.892;5.740;2022-11-20T11:18:51;48.40;;;20.03;;
5052;SDS011;2545;50.892;5.740;2022-11-20T11:21:21;54.80;;;20.63;;
5052;SDS011;2545;50.892;5.740;2022-11-20T11:23:59;50.00;;;20.47;;
5052;SDS011;2545;50.892;5.740;2022-11-20T11:26:25;43.30;;;19.67;;
5052;SDS011;2545;50.892;5.740;2022-11-20T11:28:52;39.93;;;18.80;;
5052;SDS011;2545;50.892;5.740;2022-11-20T11:31:25;44.70;;;17.73;;
5052;SDS011;2545;50.892;5.740;2022-11-20T11:33:51;42.37;;;19.67;;
5052;SDS011;2545;50.892;5.740;2022-11-20T11:36:21;43.27;;;20.40;;
5052;SDS011;2545;50.892;5.740;2022-11-20T11:38:50;41.87;;;17.60;;
5052;SDS011;2545;50.892;5.740;2022-11-20T11:41:20;40.73;;;18.40;;
5052;SDS011;2545;50.892;5.740;2022-11-20T11:43:58;42.43;;;18.70;;
5052;SDS011;2545;50.892;5.740;2022-11-20T11:46:54;41.57;;;18.37;;
5052;SDS011;2545;50.892;5.740;2022-11-20T11:49:21;39.90;;;19.50;;
5052;SDS011;2545;50.892;5.740;2022-11-20T11:57:37;33.50;;;16.97;;
5052;SDS011;2545;50.892;5.740;2022-11-20T12:00:14;40.53;;;17.53;;
5052;SDS011;2545;50.892;5.740;2022-11-20T12:05:16;39.60;;;17.63;;
5052;SDS011;2545;50.892;5.740;2022-11-20T12:07:43;34.90;;;18.20;;
5052;SDS011;2545;50.892;5.740;2022-11-20T12:10:22;35.37;;;17.20;;
5052;SDS011;2545;50.892;5.740;2022-11-20T12:13:12;34.90;;;17.47;;
5052;SDS011;2545;50.892;5.740;2022-11-20T12:15:45;33.47;;;17.10;;
5052;SDS011;2545;50.892;5.740;2022-11-20T12:18:14;34.17;;;17.87;;
5052;SDS011;2545;50.892;5.740;2022-11-20T12:20:45;44.50;;;17.80;;
5052;SDS011;2545;50.892;5.740;2022-11-20T12:23:27;41.17;;;17.10;;
5052;SDS011;2545;50.892;5.740;2022-11-20T12:26:00;33.67;;;16.23;;
5052;SDS011;2545;50.892;5.740;2022-11-20T12:34:19;27.40;;;14.33;;
5052;SDS011;2545;50.892;5.740;2022-11-20T12:37:19;27.73;;;13.77;;
5052;SDS011;2545;50.892;5.740;2022-11-20T12:39:48;25.10;;;12.83;;
5052;SDS011;2545;50.892;5.740;2022-11-20T12:42:19;30.10;;;13.43;;
5052;SDS011;2545;50.892;5.740;2022-11-20T12:48:07;18.47;;;11.13;;
5052;SDS011;2545;50.892;5.740;2022-11-20T12:56:17;19.23;;;8.80;;
5052;SDS011;2545;50.892;5.740;2022-11-20T13:01:46;11.97;;;6.10;;
5052;SDS011;2545;50.892;5.740;2022-11-20T13:04:24;12.90;;;6.17;;
5052;SDS011;2545;50.892;5.740;2022-11-20T13:07:08;10.30;;;5.13;;
5052;SDS011;2545;50.892;5.740;2022-11-20T13:09:39;11.33;;;5.13;;
5052;SDS011;2545;50.892;5.740;2022-11-20T13:14:58;6.00;;;3.60;;
5052;SDS011;2545;50.892;5.740;2022-11-20T13:20:18;6.80;;;3.53;;
5052;SDS011;2545;50.892;5.740;2022-11-20T13:25:25;4.10;;;2.53;;
5052;SDS011;2545;50.892;5.740;2022-11-20T13:27:58;5.70;;;2.67;;
5052;SDS011;2545;50.892;5.740;2022-11-20T13:30:50;4.80;;;2.90;;
5052;SDS011;2545;50.892;5.740;2022-11-20T13:33:22;4.20;;;2.60;;
5052;SDS011;2545;50.892;5.740;2022-11-20T13:35:56;5.73;;;2.33;;
5052;SDS011;2545;50.892;5.740;2022-11-20T13:38:25;7.70;;;2.33;;
5052;SDS011;2545;50.892;5.740;2022-11-20T13:40:55;8.43;;;2.47;;
5052;SDS011;2545;50.892;5.740;2022-11-20T13:46:06;8.50;;;2.33;;
5052;SDS011;2545;50.892;5.740;2022-11-20T13:48:34;2.73;;;1.73;;
5052;SDS011;2545;50.892;5.740;2022-11-20T13:51:07;6.97;;;2.80;;
5052;SDS011;2545;50.892;5.740;2022-11-20T13:53:43;6.00;;;1.93;;
5052;SDS011;2545;50.892;5.740;2022-11-20T13:59:28;2.90;;;1.77;;
5052;SDS011;2545;50.892;5.740;2022-11-20T14:02:09;2.57;;;1.93;;
5052;SDS011;2545;50.892;5.740;2022-11-20T14:04:38;3.43;;;1.70;;
5052;SDS011;2545;50.892;5.740;2022-11-20T14:07:08;5.50;;;1.60;;
5052;SDS011;2545;50.892;5.740;2022-11-20T14:09:34;9.40;;;2.17;;
5052;SDS011;2545;50.892;5.740;2022-11-20T14:12:00;2.90;;;2.00;;
5052;SDS011;2545;50.892;5.740;2022-11-20T14:14:28;5.13;;;1.50;;
5052;SDS011;2545;50.892;5.740;2022-11-20T14:17:07;5.60;;;1.80;;
5052;SDS011;2545;50.892;5.740;2022-11-20T14:19:43;4.90;;;1.90;;
5052;SDS011;2545;50.892;5.740;2022-11-20T14:22:21;5.07;;;2.20;;
5052;SDS011;2545;50.892;5.740;2022-11-20T14:24:47;11.70;;;2.23;;
5052;SDS011;2545;50.892;5.740;2022-11-20T14:27:15;4.73;;;2.07;;
5052;SDS011;2545;50.892;5.740;2022-11-20T14:29:45;7.13;;;2.10;;
5052;SDS011;2545;50.892;5.740;2022-11-20T14:32:17;8.43;;;2.63;;
5052;SDS011;2545;50.892;5.740;2022-11-20T14:34:44;4.43;;;2.60;;
5052;SDS011;2545;50.892;5.740;2022-11-20T14:37:13;6.63;;;3.07;;
5052;SDS011;2545;50.892;5.740;2022-11-20T14:39:48;13.37;;;3.80;;
5052;SDS011;2545;50.892;5.740;2022-11-20T14:42:26;8.00;;;3.27;;
5052;SDS011;2545;50.892;5.740;2022-11-20T14:44:55;4.63;;;3.17;;
5052;SDS011;2545;50.892;5.740;2022-11-20T14:47:23;7.50;;;3.27;;
5052;SDS011;2545;50.892;5.740;2022-11-20T14:49:51;5.90;;;3.47;;
5052;SDS011;2545;50.892;5.740;2022-11-20T14:52:19;9.33;;;3.47;;
5052;SDS011;2545;50.892;5.740;2022-11-20T14:54:54;15.20;;;3.47;;
5052;SDS011;2545;50.892;5.740;2022-11-20T14:57:25;5.83;;;3.53;;
5052;SDS011;2545;50.892;5.740;2022-11-20T15:00:17;6.83;;;3.50;;
5052;SDS011;2545;50.892;5.740;2022-11-20T15:02:45;7.70;;;3.87;;
5052;SDS011;2545;50.892;5.740;2022-11-20T15:05:13;8.50;;;3.87;;
5052;SDS011;2545;50.892;5.740;2022-11-20T15:07:40;9.60;;;3.93;;
5052;SDS011;2545;50.892;5.740;2022-11-20T15:10:12;6.37;;;3.57;;
5052;SDS011;2545;50.892;5.740;2022-11-20T15:12:47;15.03;;;3.90;;
5052;SDS011;2545;50.892;5.740;2022-11-20T15:15:15;6.43;;;3.77;;
5052;SDS011;2545;50.892;5.740;2022-11-20T15:17:45;10.13;;;4.40;;
5052;SDS011;2545;50.892;5.740;2022-11-20T15:20:11;10.73;;;4.50;;
5052;SDS011;2545;50.892;5.740;2022-11-20T15:22:39;5.13;;;4.63;;
5052;SDS011;2545;50.892;5.740;2022-11-20T15:25:15;5.37;;;4.07;;
5052;SDS011;2545;50.892;5.740;2022-11-20T15:27:42;9.77;;;4.00;;
5052;SDS011;2545;50.892;5.740;2022-11-20T15:30:12;5.40;;;3.53;;
5052;SDS011;2545;50.892;5.740;2022-11-20T15:32:39;5.47;;;3.37;;
5052;SDS011;2545;50.892;5.740;2022-11-20T15:35:05;9.57;;;4.07;;
5052;SDS011;2545;50.892;5.740;2022-11-20T15:37:31;10.63;;;3.80;;
5052;SDS011;2545;50.892;5.740;2022-11-20T15:39:56;6.20;;;4.50;;
5052;SDS011;2545;50.892;5.740;2022-11-20T15:42:21;8.23;;;4.57;;
5052;SDS011;2545;50.892;5.740;2022-11-20T15:44:46;9.10;;;4.23;;
5052;SDS011;2545;50.892;5.740;2022-11-20T15:47:12;7.47;;;3.70;;
5052;SDS011;2545;50.892;5.740;2022-11-20T15:49:37;9.23;;;4.30;;
5052;SDS011;2545;50.892;5.740;2022-11-20T15:52:02;6.20;;;4.07;;
5052;SDS011;2545;50.892;5.740;2022-11-20T15:54:28;7.03;;;3.50;;
5052;SDS011;2545;50.892;5.740;2022-11-20T15:56:53;7.00;;;4.50;;
5052;SDS011;2545;50.892;5.740;2022-11-20T15:59:19;6.03;;;4.10;;
5052;SDS011;2545;50.892;5.740;2022-11-20T16:01:44;8.80;;;4.20;;
5052;SDS011;2545;50.892;5.740;2022-11-20T16:04:11;5.73;;;3.93;;
5052;SDS011;2545;50.892;5.740;2022-11-20T16:06:37;7.90;;;4.43;;
5052;SDS011;2545;50.892;5.740;2022-11-20T16:09:03;7.67;;;4.43;;
5052;SDS011;2545;50.892;5.740;2022-11-20T16:11:28;8.83;;;3.87;;
5052;SDS011;2545;50.892;5.740;2022-11-20T16:13:54;9.40;;;3.90;;
5052;SDS011;2545;50.892;5.740;2022-11-20T16:16:38;5.37;;;3.23;;
5052;SDS011;2545;50.892;5.740;2022-11-20T16:19:05;7.27;;;3.00;;
5052;SDS011;2545;50.892;5.740;2022-11-20T16:21:30;4.03;;;3.03;;
5052;SDS011;2545;50.892;5.740;2022-11-20T16:24:00;3.50;;;2.90;;
5052;SDS011;2545;50.892;5.740;2022-11-20T16:26:26;8.00;;;4.10;;
5052;SDS011;2545;50.892;5.740;2022-11-20T16:28:52;7.00;;;2.73;;